sensor_id;sensor_type;location;lat;lon;timestamp;temperature;humidity
39033;DHT22;24794;51.982;5.878;2022-07-05T00:00:44;17.40;92.40
39033;DHT22;24794;51.982;5.878;2022-07-05T00:01:45;17.40;92.10
39033;DHT22;24794;51.982;5.878;2022-07-05T00:02:45;17.40;92.20
39033;DHT22;24794;51.982;5.878;2022-07-05T00:03:46;17.40;92.20
39033;DHT22;24794;51.982;5.878;2022-07-05T00:04:47;17.40;92.20
39033;DHT22;24794;51.982;5.878;2022-07-05T00:05:47;17.40;92.30
39033;DHT22;24794;51.982;5.878;2022-07-05T00:06:48;17.50;92.30
39033;DHT22;24794;51.982;5.878;2022-07-05T00:08:08;17.50;92.30
39033;DHT22;24794;51.982;5.878;2022-07-05T00:09:08;17.50;92.30
39033;DHT22;24794;51.982;5.878;2022-07-05T00:10:09;17.50;92.30
39033;DHT22;24794;51.982;5.878;2022-07-05T00:11:09;17.50;92.30
39033;DHT22;24794;51.982;5.878;2022-07-05T00:12:10;17.50;92.40
39033;DHT22;24794;51.982;5.878;2022-07-05T00:13:14;17.50;92.40
39033;DHT22;24794;51.982;5.878;2022-07-05T00:14:14;17.50;92.40
39033;DHT22;24794;51.982;5.878;2022-07-05T00:15:15;17.50;92.50
39033;DHT22;24794;51.982;5.878;2022-07-05T00:16:15;17.40;92.50
39033;DHT22;24794;51.982;5.878;2022-07-05T00:17:16;17.40;92.60
39033;DHT22;24794;51.982;5.878;2022-07-05T00:18:17;17.40;92.60
39033;DHT22;24794;51.982;5.878;2022-07-05T00:19:18;17.40;92.70
39033;DHT22;24794;51.982;5.878;2022-07-05T00:20:19;17.40;92.70
39033;DHT22;24794;51.982;5.878;2022-07-05T00:21:19;17.40;92.80
39033;DHT22;24794;51.982;5.878;2022-07-05T00:22:20;17.40;92.80
39033;DHT22;24794;51.982;5.878;2022-07-05T00:23:20;17.40;92.80
39033;DHT22;24794;51.982;5.878;2022-07-05T00:24:21;17.40;92.80
39033;DHT22;24794;51.982;5.878;2022-07-05T00:25:22;17.40;92.80
39033;DHT22;24794;51.982;5.878;2022-07-05T00:26:22;17.40;92.90
39033;DHT22;24794;51.982;5.878;2022-07-05T00:27:23;17.40;93.20
39033;DHT22;24794;51.982;5.878;2022-07-05T00:28:23;17.30;92.90
39033;DHT22;24794;51.982;5.878;2022-07-05T00:29:24;17.30;92.90
39033;DHT22;24794;51.982;5.878;2022-07-05T00:30:25;17.30;92.90
39033;DHT22;24794;51.982;5.878;2022-07-05T00:31:25;17.30;93.00
39033;DHT22;24794;51.982;5.878;2022-07-05T00:32:26;17.30;93.00
39033;DHT22;24794;51.982;5.878;2022-07-05T00:33:26;17.30;93.00
39033;DHT22;24794;51.982;5.878;2022-07-05T00:34:27;17.30;93.00
39033;DHT22;24794;51.982;5.878;2022-07-05T00:35:27;17.30;93.10
39033;DHT22;24794;51.982;5.878;2022-07-05T00:36:28;17.30;93.10
39033;DHT22;24794;51.982;5.878;2022-07-05T00:37:29;17.30;93.10
39033;DHT22;24794;51.982;5.878;2022-07-05T00:38:29;17.30;93.10
39033;DHT22;24794;51.982;5.878;2022-07-05T00:39:30;17.30;93.10
39033;DHT22;24794;51.982;5.878;2022-07-05T00:40:31;17.40;93.10
39033;DHT22;24794;51.982;5.878;2022-07-05T00:41:31;17.40;93.10
39033;DHT22;24794;51.982;5.878;2022-07-05T00:42:32;17.40;93.10
39033;DHT22;24794;51.982;5.878;2022-07-05T00:43:33;17.40;93.10
39033;DHT22;24794;51.982;5.878;2022-07-05T00:44:36;17.40;93.10
39033;DHT22;24794;51.982;5.878;2022-07-05T00:45:38;17.30;93.10
39033;DHT22;24794;51.982;5.878;2022-07-05T00:46:38;17.30;93.20
39033;DHT22;24794;51.982;5.878;2022-07-05T00:47:39;17.30;93.20
39033;DHT22;24794;51.982;5.878;2022-07-05T00:48:39;17.30;93.20
39033;DHT22;24794;51.982;5.878;2022-07-05T00:49:41;17.30;93.30
39033;DHT22;24794;51.982;5.878;2022-07-05T00:50:42;17.30;93.30
39033;DHT22;24794;51.982;5.878;2022-07-05T00:51:42;17.20;93.30
39033;DHT22;24794;51.982;5.878;2022-07-05T00:52:43;17.20;93.40
39033;DHT22;24794;51.982;5.878;2022-07-05T00:53:44;17.20;93.40
39033;DHT22;24794;51.982;5.878;2022-07-05T00:54:45;17.20;93.50
39033;DHT22;24794;51.982;5.878;2022-07-05T00:55:46;17.10;93.50
39033;DHT22;24794;51.982;5.878;2022-07-05T00:56:47;17.10;93.50
39033;DHT22;24794;51.982;5.878;2022-07-05T00:57:49;17.10;93.60
39033;DHT22;24794;51.982;5.878;2022-07-05T00:58:50;17.10;93.60
39033;DHT22;24794;51.982;5.878;2022-07-05T00:59:51;17.00;93.70
39033;DHT22;24794;51.982;5.878;2022-07-05T01:00:52;17.00;93.70
39033;DHT22;24794;51.982;5.878;2022-07-05T01:01:53;17.00;93.70
39033;DHT22;24794;51.982;5.878;2022-07-05T01:02:55;16.90;93.80
39033;DHT22;24794;51.982;5.878;2022-07-05T01:03:56;16.90;93.80
39033;DHT22;24794;51.982;5.878;2022-07-05T01:04:57;16.90;93.90
39033;DHT22;24794;51.982;5.878;2022-07-05T01:06:00;16.90;93.90
39033;DHT22;24794;51.982;5.878;2022-07-05T01:07:01;16.80;93.90
39033;DHT22;24794;51.982;5.878;2022-07-05T01:08:04;16.80;94.00
39033;DHT22;24794;51.982;5.878;2022-07-05T01:09:07;16.80;94.00
39033;DHT22;24794;51.982;5.878;2022-07-05T01:10:09;16.80;94.10
39033;DHT22;24794;51.982;5.878;2022-07-05T01:11:11;16.80;94.10
39033;DHT22;24794;51.982;5.878;2022-07-05T01:12:13;16.80;94.10
39033;DHT22;24794;51.982;5.878;2022-07-05T01:13:14;16.80;94.10
39033;DHT22;24794;51.982;5.878;2022-07-05T01:14:20;16.80;94.10
39033;DHT22;24794;51.982;5.878;2022-07-05T01:15:21;16.80;94.20
39033;DHT22;24794;51.982;5.878;2022-07-05T01:16:22;16.80;94.20
39033;DHT22;24794;51.982;5.878;2022-07-05T01:17:23;16.80;94.20
39033;DHT22;24794;51.982;5.878;2022-07-05T01:19:24;16.80;94.20
39033;DHT22;24794;51.982;5.878;2022-07-05T01:20:25;16.80;94.30
39033;DHT22;24794;51.982;5.878;2022-07-05T01:21:27;16.80;94.30
39033;DHT22;24794;51.982;5.878;2022-07-05T01:23:30;16.80;94.30
39033;DHT22;24794;51.982;5.878;2022-07-05T01:24:31;16.80;94.30
39033;DHT22;24794;51.982;5.878;2022-07-05T01:25:32;16.80;94.40
39033;DHT22;24794;51.982;5.878;2022-07-05T01:26:33;16.80;94.40
39033;DHT22;24794;51.982;5.878;2022-07-05T01:27:34;16.80;94.40
39033;DHT22;24794;51.982;5.878;2022-07-05T01:28:34;16.80;94.40
39033;DHT22;24794;51.982;5.878;2022-07-05T01:29:35;16.90;94.50
39033;DHT22;24794;51.982;5.878;2022-07-05T01:30:36;16.90;94.50
39033;DHT22;24794;51.982;5.878;2022-07-05T01:31:38;16.90;94.50
39033;DHT22;24794;51.982;5.878;2022-07-05T01:32:39;16.90;94.50
39033;DHT22;24794;51.982;5.878;2022-07-05T01:33:39;16.90;94.50
39033;DHT22;24794;51.982;5.878;2022-07-05T01:34:41;16.90;94.50
39033;DHT22;24794;51.982;5.878;2022-07-05T01:35:41;16.90;94.50
39033;DHT22;24794;51.982;5.878;2022-07-05T01:36:42;16.90;94.50
39033;DHT22;24794;51.982;5.878;2022-07-05T01:37:43;16.90;94.50
39033;DHT22;24794;51.982;5.878;2022-07-05T01:38:44;17.00;94.50
39033;DHT22;24794;51.982;5.878;2022-07-05T01:39:45;17.00;94.50
39033;DHT22;24794;51.982;5.878;2022-07-05T01:40:46;17.00;94.50
39033;DHT22;24794;51.982;5.878;2022-07-05T01:41:50;16.90;94.50
39033;DHT22;24794;51.982;5.878;2022-07-05T01:42:51;17.00;94.60
39033;DHT22;24794;51.982;5.878;2022-07-05T01:43:52;17.00;94.60
39033;DHT22;24794;51.982;5.878;2022-07-05T01:44:52;17.00;94.60
39033;DHT22;24794;51.982;5.878;2022-07-05T01:45:54;17.00;94.60
39033;DHT22;24794;51.982;5.878;2022-07-05T01:46:59;17.00;94.60
39033;DHT22;24794;51.982;5.878;2022-07-05T01:48:08;17.10;94.60
39033;DHT22;24794;51.982;5.878;2022-07-05T01:49:11;17.10;94.60
39033;DHT22;24794;51.982;5.878;2022-07-05T01:50:15;17.10;94.60
39033;DHT22;24794;51.982;5.878;2022-07-05T01:51:20;17.10;94.60
39033;DHT22;24794;51.982;5.878;2022-07-05T01:52:24;17.10;94.60
39033;DHT22;24794;51.982;5.878;2022-07-05T01:53:30;17.10;94.50
39033;DHT22;24794;51.982;5.878;2022-07-05T01:54:31;17.10;94.60
39033;DHT22;24794;51.982;5.878;2022-07-05T01:55:32;17.10;94.60
39033;DHT22;24794;51.982;5.878;2022-07-05T01:56:33;17.10;94.60
39033;DHT22;24794;51.982;5.878;2022-07-05T01:57:34;17.10;94.60
39033;DHT22;24794;51.982;5.878;2022-07-05T01:58:35;17.10;94.60
39033;DHT22;24794;51.982;5.878;2022-07-05T01:59:36;17.10;94.60
39033;DHT22;24794;51.982;5.878;2022-07-05T02:00:45;17.10;94.60
39033;DHT22;24794;51.982;5.878;2022-07-05T02:01:46;17.10;94.60
39033;DHT22;24794;51.982;5.878;2022-07-05T02:02:47;17.10;94.60
39033;DHT22;24794;51.982;5.878;2022-07-05T02:03:50;17.10;94.70
39033;DHT22;24794;51.982;5.878;2022-07-05T02:04:50;17.10;94.70
39033;DHT22;24794;51.982;5.878;2022-07-05T02:05:52;17.00;94.70
39033;DHT22;24794;51.982;5.878;2022-07-05T02:06:52;17.00;94.70
39033;DHT22;24794;51.982;5.878;2022-07-05T02:07:53;17.00;94.80
39033;DHT22;24794;51.982;5.878;2022-07-05T02:08:53;17.00;94.80
39033;DHT22;24794;51.982;5.878;2022-07-05T02:09:54;16.90;94.80
39033;DHT22;24794;51.982;5.878;2022-07-05T02:10:55;16.90;94.80
39033;DHT22;24794;51.982;5.878;2022-07-05T02:11:55;16.90;94.90
39033;DHT22;24794;51.982;5.878;2022-07-05T02:12:56;16.90;94.90
39033;DHT22;24794;51.982;5.878;2022-07-05T02:13:59;16.90;95.00
39033;DHT22;24794;51.982;5.878;2022-07-05T02:15:00;16.80;95.00
39033;DHT22;24794;51.982;5.878;2022-07-05T02:16:00;16.80;95.00
39033;DHT22;24794;51.982;5.878;2022-07-05T02:17:01;16.80;95.10
39033;DHT22;24794;51.982;5.878;2022-07-05T02:18:03;16.80;95.10
39033;DHT22;24794;51.982;5.878;2022-07-05T02:19:04;16.80;95.10
39033;DHT22;24794;51.982;5.878;2022-07-05T02:20:05;16.80;95.20
39033;DHT22;24794;51.982;5.878;2022-07-05T02:21:06;16.80;95.20
39033;DHT22;24794;51.982;5.878;2022-07-05T02:22:06;16.70;95.20
39033;DHT22;24794;51.982;5.878;2022-07-05T02:23:08;16.70;95.30
39033;DHT22;24794;51.982;5.878;2022-07-05T02:24:09;16.70;95.30
39033;DHT22;24794;51.982;5.878;2022-07-05T02:25:09;16.80;95.40
39033;DHT22;24794;51.982;5.878;2022-07-05T02:26:10;16.70;95.40
39033;DHT22;24794;51.982;5.878;2022-07-05T02:27:10;16.80;95.40
39033;DHT22;24794;51.982;5.878;2022-07-05T02:28:11;16.80;95.40
39033;DHT22;24794;51.982;5.878;2022-07-05T02:29:12;16.80;95.40
39033;DHT22;24794;51.982;5.878;2022-07-05T02:30:13;16.80;95.40
39033;DHT22;24794;51.982;5.878;2022-07-05T02:31:14;16.80;95.40
39033;DHT22;24794;51.982;5.878;2022-07-05T02:32:16;16.80;95.40
39033;DHT22;24794;51.982;5.878;2022-07-05T02:33:17;16.80;95.40
39033;DHT22;24794;51.982;5.878;2022-07-05T02:34:17;16.80;95.40
39033;DHT22;24794;51.982;5.878;2022-07-05T02:35:18;16.80;95.40
39033;DHT22;24794;51.982;5.878;2022-07-05T02:36:19;16.80;95.40
39033;DHT22;24794;51.982;5.878;2022-07-05T02:37:19;16.80;95.50
39033;DHT22;24794;51.982;5.878;2022-07-05T02:38:20;16.80;95.50
39033;DHT22;24794;51.982;5.878;2022-07-05T02:39:21;16.80;95.50
39033;DHT22;24794;51.982;5.878;2022-07-05T02:40:21;16.90;95.60
39033;DHT22;24794;51.982;5.878;2022-07-05T02:41:22;16.80;95.50
39033;DHT22;24794;51.982;5.878;2022-07-05T02:42:22;16.80;95.50
39033;DHT22;24794;51.982;5.878;2022-07-05T02:43:23;16.80;95.50
39033;DHT22;24794;51.982;5.878;2022-07-05T02:44:23;16.90;95.60
39033;DHT22;24794;51.982;5.878;2022-07-05T02:45:24;16.90;95.60
39033;DHT22;24794;51.982;5.878;2022-07-05T02:46:24;16.80;95.60
39033;DHT22;24794;51.982;5.878;2022-07-05T02:47:25;16.80;95.70
39033;DHT22;24794;51.982;5.878;2022-07-05T02:48:26;16.90;95.70
39033;DHT22;24794;51.982;5.878;2022-07-05T02:49:27;16.90;95.80
39033;DHT22;24794;51.982;5.878;2022-07-05T02:50:27;16.90;95.80
39033;DHT22;24794;51.982;5.878;2022-07-05T02:51:28;16.90;95.70
39033;DHT22;24794;51.982;5.878;2022-07-05T02:52:28;16.90;95.70
39033;DHT22;24794;51.982;5.878;2022-07-05T02:53:29;16.90;95.70
39033;DHT22;24794;51.982;5.878;2022-07-05T02:54:30;16.90;95.70
39033;DHT22;24794;51.982;5.878;2022-07-05T02:55:31;16.90;95.70
39033;DHT22;24794;51.982;5.878;2022-07-05T02:56:31;17.00;95.80
39033;DHT22;24794;51.982;5.878;2022-07-05T02:57:32;17.00;95.80
39033;DHT22;24794;51.982;5.878;2022-07-05T02:58:33;17.00;95.80
39033;DHT22;24794;51.982;5.878;2022-07-05T02:59:33;17.00;95.80
39033;DHT22;24794;51.982;5.878;2022-07-05T03:00:34;17.00;96.10
39033;DHT22;24794;51.982;5.878;2022-07-05T03:01:34;17.00;95.80
39033;DHT22;24794;51.982;5.878;2022-07-05T03:02:35;17.00;95.80
39033;DHT22;24794;51.982;5.878;2022-07-05T03:03:36;17.00;95.80
39033;DHT22;24794;51.982;5.878;2022-07-05T03:04:36;17.10;95.80
39033;DHT22;24794;51.982;5.878;2022-07-05T03:05:37;17.10;95.80
39033;DHT22;24794;51.982;5.878;2022-07-05T03:06:37;17.10;95.80
39033;DHT22;24794;51.982;5.878;2022-07-05T03:07:38;17.10;95.90
39033;DHT22;24794;51.982;5.878;2022-07-05T03:08:40;17.10;96.20
39033;DHT22;24794;51.982;5.878;2022-07-05T03:09:41;17.10;96.00
39033;DHT22;24794;51.982;5.878;2022-07-05T03:10:42;17.10;96.00
39033;DHT22;24794;51.982;5.878;2022-07-05T03:11:42;17.10;96.00
39033;DHT22;24794;51.982;5.878;2022-07-05T03:12:43;17.10;96.00
39033;DHT22;24794;51.982;5.878;2022-07-05T03:13:43;17.10;96.00
39033;DHT22;24794;51.982;5.878;2022-07-05T03:14:44;17.10;96.00
39033;DHT22;24794;51.982;5.878;2022-07-05T03:15:45;17.00;96.00
39033;DHT22;24794;51.982;5.878;2022-07-05T03:16:45;17.00;96.00
39033;DHT22;24794;51.982;5.878;2022-07-05T03:17:46;17.00;96.10
39033;DHT22;24794;51.982;5.878;2022-07-05T03:18:46;17.00;96.20
39033;DHT22;24794;51.982;5.878;2022-07-05T03:19:47;17.10;96.20
39033;DHT22;24794;51.982;5.878;2022-07-05T03:20:48;17.10;96.50
39033;DHT22;24794;51.982;5.878;2022-07-05T03:21:48;17.10;96.20
39033;DHT22;24794;51.982;5.878;2022-07-05T03:22:49;17.10;96.20
39033;DHT22;24794;51.982;5.878;2022-07-05T03:23:49;17.10;96.20
39033;DHT22;24794;51.982;5.878;2022-07-05T03:24:50;17.10;96.20
39033;DHT22;24794;51.982;5.878;2022-07-05T03:25:51;17.10;96.20
39033;DHT22;24794;51.982;5.878;2022-07-05T03:26:51;17.10;96.20
39033;DHT22;24794;51.982;5.878;2022-07-05T03:27:52;17.00;96.20
39033;DHT22;24794;51.982;5.878;2022-07-05T03:28:52;17.00;96.20
39033;DHT22;24794;51.982;5.878;2022-07-05T03:29:53;17.00;96.20
39033;DHT22;24794;51.982;5.878;2022-07-05T03:30:54;17.00;96.30
39033;DHT22;24794;51.982;5.878;2022-07-05T03:31:54;16.90;96.30
39033;DHT22;24794;51.982;5.878;2022-07-05T03:32:55;16.90;96.40
39033;DHT22;24794;51.982;5.878;2022-07-05T03:33:55;16.90;96.40
39033;DHT22;24794;51.982;5.878;2022-07-05T03:34:57;16.90;96.50
39033;DHT22;24794;51.982;5.878;2022-07-05T03:35:57;16.90;96.50
39033;DHT22;24794;51.982;5.878;2022-07-05T03:36:58;16.90;96.50
39033;DHT22;24794;51.982;5.878;2022-07-05T03:37:59;16.90;96.50
39033;DHT22;24794;51.982;5.878;2022-07-05T03:38:59;16.90;96.50
39033;DHT22;24794;51.982;5.878;2022-07-05T03:40:00;16.90;96.60
39033;DHT22;24794;51.982;5.878;2022-07-05T03:41:01;16.90;96.60
39033;DHT22;24794;51.982;5.878;2022-07-05T03:42:02;16.90;96.60
39033;DHT22;24794;51.982;5.878;2022-07-05T03:43:03;16.90;96.60
39033;DHT22;24794;51.982;5.878;2022-07-05T03:44:04;16.90;96.70
39033;DHT22;24794;51.982;5.878;2022-07-05T03:45:05;16.90;96.70
39033;DHT22;24794;51.982;5.878;2022-07-05T03:46:06;16.90;96.70
39033;DHT22;24794;51.982;5.878;2022-07-05T03:47:06;16.90;96.70
39033;DHT22;24794;51.982;5.878;2022-07-05T03:48:07;16.90;96.70
39033;DHT22;24794;51.982;5.878;2022-07-05T03:49:07;16.90;96.70
39033;DHT22;24794;51.982;5.878;2022-07-05T03:50:08;16.90;96.70
39033;DHT22;24794;51.982;5.878;2022-07-05T03:51:09;16.90;96.80
39033;DHT22;24794;51.982;5.878;2022-07-05T03:52:09;16.90;96.80
39033;DHT22;24794;51.982;5.878;2022-07-05T03:53:10;16.90;96.70
39033;DHT22;24794;51.982;5.878;2022-07-05T03:54:10;16.90;96.80
39033;DHT22;24794;51.982;5.878;2022-07-05T03:55:11;16.90;96.80
39033;DHT22;24794;51.982;5.878;2022-07-05T03:56:12;16.90;96.70
39033;DHT22;24794;51.982;5.878;2022-07-05T03:57:13;16.90;96.70
39033;DHT22;24794;51.982;5.878;2022-07-05T03:58:13;17.00;96.70
39033;DHT22;24794;51.982;5.878;2022-07-05T03:59:14;17.00;96.80
39033;DHT22;24794;51.982;5.878;2022-07-05T04:00:15;17.00;96.80
39033;DHT22;24794;51.982;5.878;2022-07-05T04:01:16;17.00;96.80
39033;DHT22;24794;51.982;5.878;2022-07-05T04:02:16;17.00;96.80
39033;DHT22;24794;51.982;5.878;2022-07-05T04:03:17;17.10;96.80
39033;DHT22;24794;51.982;5.878;2022-07-05T04:04:17;17.10;96.80
39033;DHT22;24794;51.982;5.878;2022-07-05T04:05:18;17.20;96.90
39033;DHT22;24794;51.982;5.878;2022-07-05T04:06:19;17.20;96.80
39033;DHT22;24794;51.982;5.878;2022-07-05T04:07:19;17.20;96.80
39033;DHT22;24794;51.982;5.878;2022-07-05T04:08:20;17.20;96.70
39033;DHT22;24794;51.982;5.878;2022-07-05T04:09:22;17.30;96.70
39033;DHT22;24794;51.982;5.878;2022-07-05T04:10:23;17.30;96.60
39033;DHT22;24794;51.982;5.878;2022-07-05T04:11:24;17.30;96.60
39033;DHT22;24794;51.982;5.878;2022-07-05T04:12:25;17.30;96.80
39033;DHT22;24794;51.982;5.878;2022-07-05T04:13:25;17.30;96.60
39033;DHT22;24794;51.982;5.878;2022-07-05T04:14:26;17.30;96.60
39033;DHT22;24794;51.982;5.878;2022-07-05T04:15:27;17.30;96.60
39033;DHT22;24794;51.982;5.878;2022-07-05T04:16:27;17.30;96.60
39033;DHT22;24794;51.982;5.878;2022-07-05T04:17:28;17.20;96.60
39033;DHT22;24794;51.982;5.878;2022-07-05T04:18:30;17.20;96.60
39033;DHT22;24794;51.982;5.878;2022-07-05T04:19:30;17.20;96.60
39033;DHT22;24794;51.982;5.878;2022-07-05T04:20:31;17.10;96.60
39033;DHT22;24794;51.982;5.878;2022-07-05T04:21:32;17.10;96.70
39033;DHT22;24794;51.982;5.878;2022-07-05T04:22:32;17.10;96.70
39033;DHT22;24794;51.982;5.878;2022-07-05T04:23:33;17.10;96.80
39033;DHT22;24794;51.982;5.878;2022-07-05T04:24:33;17.10;96.80
39033;DHT22;24794;51.982;5.878;2022-07-05T04:25:57;17.10;96.90
39033;DHT22;24794;51.982;5.878;2022-07-05T04:26:57;17.00;96.90
39033;DHT22;24794;51.982;5.878;2022-07-05T04:27:58;17.10;97.00
39033;DHT22;24794;51.982;5.878;2022-07-05T04:28:59;17.10;97.00
39033;DHT22;24794;51.982;5.878;2022-07-05T04:29:59;17.10;97.10
39033;DHT22;24794;51.982;5.878;2022-07-05T04:31:00;17.10;97.10
39033;DHT22;24794;51.982;5.878;2022-07-05T04:32:00;17.10;97.20
39033;DHT22;24794;51.982;5.878;2022-07-05T04:33:01;17.10;97.20
39033;DHT22;24794;51.982;5.878;2022-07-05T04:34:01;17.20;97.20
39033;DHT22;24794;51.982;5.878;2022-07-05T04:35:02;17.20;97.20
39033;DHT22;24794;51.982;5.878;2022-07-05T04:36:03;17.20;97.30
39033;DHT22;24794;51.982;5.878;2022-07-05T04:37:04;17.10;97.30
39033;DHT22;24794;51.982;5.878;2022-07-05T04:38:04;17.10;97.40
39033;DHT22;24794;51.982;5.878;2022-07-05T04:39:05;17.10;97.40
39033;DHT22;24794;51.982;5.878;2022-07-05T04:40:07;17.10;97.50
39033;DHT22;24794;51.982;5.878;2022-07-05T04:41:08;17.10;97.60
39033;DHT22;24794;51.982;5.878;2022-07-05T04:42:09;17.10;97.70
39033;DHT22;24794;51.982;5.878;2022-07-05T04:43:10;17.10;97.80
39033;DHT22;24794;51.982;5.878;2022-07-05T04:44:10;17.10;97.80
39033;DHT22;24794;51.982;5.878;2022-07-05T04:45:11;17.00;97.90
39033;DHT22;24794;51.982;5.878;2022-07-05T04:46:12;17.00;97.90
39033;DHT22;24794;51.982;5.878;2022-07-05T04:47:12;17.00;98.00
39033;DHT22;24794;51.982;5.878;2022-07-05T04:48:13;17.00;98.10
39033;DHT22;24794;51.982;5.878;2022-07-05T04:49:14;17.00;98.40
39033;DHT22;24794;51.982;5.878;2022-07-05T04:50:14;17.00;98.10
39033;DHT22;24794;51.982;5.878;2022-07-05T04:51:15;17.00;98.20
39033;DHT22;24794;51.982;5.878;2022-07-05T04:52:15;17.00;98.20
39033;DHT22;24794;51.982;5.878;2022-07-05T04:53:16;17.00;98.30
39033;DHT22;24794;51.982;5.878;2022-07-05T04:54:16;17.00;98.30
39033;DHT22;24794;51.982;5.878;2022-07-05T04:55:17;17.00;98.40
39033;DHT22;24794;51.982;5.878;2022-07-05T04:56:18;17.00;98.50
39033;DHT22;24794;51.982;5.878;2022-07-05T04:57:18;17.00;98.50
39033;DHT22;24794;51.982;5.878;2022-07-05T04:58:19;17.10;98.60
39033;DHT22;24794;51.982;5.878;2022-07-05T04:59:20;17.10;98.60
39033;DHT22;24794;51.982;5.878;2022-07-05T05:00:20;17.10;98.60
39033;DHT22;24794;51.982;5.878;2022-07-05T05:01:21;17.20;98.60
39033;DHT22;24794;51.982;5.878;2022-07-05T05:02:21;17.20;98.60
39033;DHT22;24794;51.982;5.878;2022-07-05T05:03:22;17.20;98.70
39033;DHT22;24794;51.982;5.878;2022-07-05T05:04:23;17.20;98.70
39033;DHT22;24794;51.982;5.878;2022-07-05T05:05:23;17.20;98.80
39033;DHT22;24794;51.982;5.878;2022-07-05T05:06:24;17.20;98.80
39033;DHT22;24794;51.982;5.878;2022-07-05T05:07:24;17.20;98.90
39033;DHT22;24794;51.982;5.878;2022-07-05T05:08:25;17.30;99.00
39033;DHT22;24794;51.982;5.878;2022-07-05T05:09:26;17.30;99.00
39033;DHT22;24794;51.982;5.878;2022-07-05T05:10:26;17.30;99.00
39033;DHT22;24794;51.982;5.878;2022-07-05T05:11:27;17.30;99.00
39033;DHT22;24794;51.982;5.878;2022-07-05T05:12:27;17.30;99.00
39033;DHT22;24794;51.982;5.878;2022-07-05T05:13:28;17.40;99.10
39033;DHT22;24794;51.982;5.878;2022-07-05T05:14:28;17.40;99.10
39033;DHT22;24794;51.982;5.878;2022-07-05T05:15:29;17.40;99.10
39033;DHT22;24794;51.982;5.878;2022-07-05T05:16:30;17.50;99.20
39033;DHT22;24794;51.982;5.878;2022-07-05T05:17:38;17.50;99.10
39033;DHT22;24794;51.982;5.878;2022-07-05T05:18:38;17.50;99.10
39033;DHT22;24794;51.982;5.878;2022-07-05T05:19:39;17.50;99.10
39033;DHT22;24794;51.982;5.878;2022-07-05T05:20:39;17.50;99.10
39033;DHT22;24794;51.982;5.878;2022-07-05T05:21:40;17.50;99.10
39033;DHT22;24794;51.982;5.878;2022-07-05T05:22:42;17.50;99.10
39033;DHT22;24794;51.982;5.878;2022-07-05T05:23:42;17.50;99.10
39033;DHT22;24794;51.982;5.878;2022-07-05T05:24:43;17.50;99.10
39033;DHT22;24794;51.982;5.878;2022-07-05T05:25:43;17.50;99.20
39033;DHT22;24794;51.982;5.878;2022-07-05T05:26:44;17.50;99.20
39033;DHT22;24794;51.982;5.878;2022-07-05T05:27:46;17.50;99.20
39033;DHT22;24794;51.982;5.878;2022-07-05T05:28:47;17.50;99.30
39033;DHT22;24794;51.982;5.878;2022-07-05T05:29:48;17.40;99.40
39033;DHT22;24794;51.982;5.878;2022-07-05T05:30:48;17.40;99.50
39033;DHT22;24794;51.982;5.878;2022-07-05T05:31:49;17.40;99.60
39033;DHT22;24794;51.982;5.878;2022-07-05T05:32:50;17.40;99.70
39033;DHT22;24794;51.982;5.878;2022-07-05T05:33:51;17.30;99.70
39033;DHT22;24794;51.982;5.878;2022-07-05T05:34:51;17.30;99.80
39033;DHT22;24794;51.982;5.878;2022-07-05T05:35:52;17.30;99.90
39033;DHT22;24794;51.982;5.878;2022-07-05T05:36:52;17.30;99.90
39033;DHT22;24794;51.982;5.878;2022-07-05T05:37:55;17.30;99.90
39033;DHT22;24794;51.982;5.878;2022-07-05T05:38:56;17.30;99.90
39033;DHT22;24794;51.982;5.878;2022-07-05T05:39:56;17.30;99.90
39033;DHT22;24794;51.982;5.878;2022-07-05T05:40:57;17.30;99.90
39033;DHT22;24794;51.982;5.878;2022-07-05T05:41:57;17.30;99.90
39033;DHT22;24794;51.982;5.878;2022-07-05T05:42:58;17.30;99.90
39033;DHT22;24794;51.982;5.878;2022-07-05T05:43:59;17.40;99.90
39033;DHT22;24794;51.982;5.878;2022-07-05T05:44:59;17.40;99.90
39033;DHT22;24794;51.982;5.878;2022-07-05T05:46:00;17.40;99.90
39033;DHT22;24794;51.982;5.878;2022-07-05T05:47:01;17.40;99.90
39033;DHT22;24794;51.982;5.878;2022-07-05T05:48:01;17.40;99.90
39033;DHT22;24794;51.982;5.878;2022-07-05T05:49:02;17.40;99.90
39033;DHT22;24794;51.982;5.878;2022-07-05T05:50:03;17.40;99.90
39033;DHT22;24794;51.982;5.878;2022-07-05T05:51:04;17.30;99.90
39033;DHT22;24794;51.982;5.878;2022-07-05T05:52:05;17.30;99.90
39033;DHT22;24794;51.982;5.878;2022-07-05T05:53:07;17.30;99.90
39033;DHT22;24794;51.982;5.878;2022-07-05T05:54:10;17.30;99.90
39033;DHT22;24794;51.982;5.878;2022-07-05T05:55:11;17.40;99.90
39033;DHT22;24794;51.982;5.878;2022-07-05T05:56:12;17.30;99.90
39033;DHT22;24794;51.982;5.878;2022-07-05T05:57:13;17.30;99.90
39033;DHT22;24794;51.982;5.878;2022-07-05T05:59:15;17.30;99.90
39033;DHT22;24794;51.982;5.878;2022-07-05T06:00:16;17.30;99.90
39033;DHT22;24794;51.982;5.878;2022-07-05T06:01:17;17.30;99.90
39033;DHT22;24794;51.982;5.878;2022-07-05T06:02:18;17.30;99.90
39033;DHT22;24794;51.982;5.878;2022-07-05T06:03:20;17.40;99.90
39033;DHT22;24794;51.982;5.878;2022-07-05T06:04:20;17.30;99.90
39033;DHT22;24794;51.982;5.878;2022-07-05T06:05:21;17.30;99.90
39033;DHT22;24794;51.982;5.878;2022-07-05T06:06:22;17.30;99.90
39033;DHT22;24794;51.982;5.878;2022-07-05T06:07:22;17.30;99.90
39033;DHT22;24794;51.982;5.878;2022-07-05T06:08:23;17.30;99.90
39033;DHT22;24794;51.982;5.878;2022-07-05T06:09:24;17.30;99.90
39033;DHT22;24794;51.982;5.878;2022-07-05T06:10:26;17.30;99.90
39033;DHT22;24794;51.982;5.878;2022-07-05T06:11:27;17.30;99.90
39033;DHT22;24794;51.982;5.878;2022-07-05T06:12:28;17.30;99.90
39033;DHT22;24794;51.982;5.878;2022-07-05T06:13:28;17.30;99.90
39033;DHT22;24794;51.982;5.878;2022-07-05T06:14:29;17.30;99.90
39033;DHT22;24794;51.982;5.878;2022-07-05T06:15:30;17.30;99.90
39033;DHT22;24794;51.982;5.878;2022-07-05T06:16:30;17.30;99.90
39033;DHT22;24794;51.982;5.878;2022-07-05T06:17:36;17.30;99.90
39033;DHT22;24794;51.982;5.878;2022-07-05T06:18:37;17.30;99.90
39033;DHT22;24794;51.982;5.878;2022-07-05T06:19:37;17.40;99.90
39033;DHT22;24794;51.982;5.878;2022-07-05T06:20:38;17.40;99.90
39033;DHT22;24794;51.982;5.878;2022-07-05T06:21:39;17.40;99.90
39033;DHT22;24794;51.982;5.878;2022-07-05T06:22:40;17.40;99.90
39033;DHT22;24794;51.982;5.878;2022-07-05T06:23:40;17.40;99.90
39033;DHT22;24794;51.982;5.878;2022-07-05T06:24:41;17.40;99.90
39033;DHT22;24794;51.982;5.878;2022-07-05T06:25:42;17.50;99.90
39033;DHT22;24794;51.982;5.878;2022-07-05T06:26:42;17.50;99.90
39033;DHT22;24794;51.982;5.878;2022-07-05T06:27:47;17.50;99.90
39033;DHT22;24794;51.982;5.878;2022-07-05T06:28:48;17.50;99.90